createdAt,value
2022-11-20T00:00:46.307Z,14.97
2022-11-20T00:03:14.756Z,10.50
2022-11-20T00:05:42.698Z,21.90
2022-11-20T00:08:10.651Z,5.47
2022-11-20T00:10:38.676Z,22.00
2022-11-20T00:13:08.407Z,6.43
2022-11-20T00:15:36.343Z,16.53
2022-11-20T00:18:04.294Z,18.80
2022-11-20T00:20:32.249Z,16.47
2022-11-20T00:23:00.188Z,5.70
2022-11-20T00:25:28.144Z,8.50
2022-11-20T00:27:56.094Z,11.73
2022-11-20T00:30:25.424Z,10.57
2022-11-20T00:32:53.344Z,5.03
2022-11-20T00:35:21.257Z,6.60
2022-11-20T00:37:49.212Z,2.70
2022-11-20T00:40:17.308Z,8.63
2022-11-20T00:42:45.217Z,20.77
2022-11-20T00:45:13.121Z,4.20
2022-11-20T00:47:42.445Z,10.00
2022-11-20T00:50:11.075Z,7.60
2022-11-20T00:52:39.026Z,8.23
2022-11-20T00:55:07.893Z,22.63
2022-11-20T00:57:35.821Z,4.93
2022-11-20T01:00:03.835Z,2.80
2022-11-20T01:02:31.780Z,13.30
2022-11-20T01:05:01.109Z,11.70
2022-11-20T01:07:29.113Z,8.37
2022-11-20T01:09:57.090Z,8.40
2022-11-20T01:12:25.055Z,3.90
2022-11-20T01:14:52.989Z,2.90
2022-11-20T01:17:20.945Z,6.70
2022-11-20T01:19:51.046Z,3.20
2022-11-20T01:22:20.325Z,7.27
2022-11-20T01:24:48.263Z,3.53
2022-11-20T01:27:16.221Z,7.80
2022-11-20T01:29:44.108Z,4.20
2022-11-20T01:32:12.021Z,7.47
2022-11-20T01:34:39.935Z,2.97
2022-11-20T01:37:07.865Z,6.67
2022-11-20T01:39:37.131Z,8.43
2022-11-20T01:42:22.844Z,6.37
2022-11-20T01:44:53.421Z,11.30
2022-11-20T01:47:24.455Z,4.20
2022-11-20T01:49:53.574Z,6.50
2022-11-20T01:52:22.433Z,7.87
2022-11-20T01:54:55.020Z,6.93
2022-11-20T01:57:22.998Z,6.77
2022-11-20T01:59:52.937Z,9.00
2022-11-20T02:02:20.846Z,4.50
2022-11-20T02:04:48.894Z,5.90
2022-11-20T02:07:16.913Z,10.40
2022-11-20T02:09:44.893Z,6.30
2022-11-20T02:12:34.177Z,4.43
2022-11-20T02:15:01.087Z,6.13
2022-11-20T02:17:29.031Z,3.97
2022-11-20T02:19:57.032Z,6.13
2022-11-20T02:22:27.969Z,14.30
2022-11-20T02:24:57.281Z,15.77
2022-11-20T02:27:25.198Z,5.80
2022-11-20T02:29:54.106Z,7.67
2022-11-20T02:32:22.191Z,10.03
2022-11-20T02:34:50.142Z,1.93
2022-11-20T02:37:18.030Z,3.20
2022-11-20T02:39:46.213Z,9.13
2022-11-20T02:42:15.511Z,8.43
2022-11-20T02:44:43.454Z,4.40
2022-11-20T02:47:11.449Z,5.53
2022-11-20T02:49:39.601Z,9.30
2022-11-20T02:52:07.561Z,11.33
2022-11-20T02:54:35.498Z,5.47
2022-11-20T02:57:03.471Z,8.73
2022-11-20T02:59:32.738Z,7.60
2022-11-20T03:02:00.702Z,9.83
2022-11-20T03:04:28.644Z,8.87
2022-11-20T03:06:56.682Z,3.60
2022-11-20T03:09:24.736Z,13.20
2022-11-20T03:11:52.714Z,9.83
2022-11-20T03:14:20.679Z,10.00
2022-11-20T03:16:49.994Z,7.20
2022-11-20T03:19:18.007Z,3.30
2022-11-20T03:21:46.062Z,7.90
2022-11-20T03:24:14.667Z,3.53
2022-11-20T03:26:42.621Z,6.03
2022-11-20T03:29:10.605Z,11.20
2022-11-20T03:31:41.274Z,13.73
2022-11-20T03:34:10.973Z,4.93
2022-11-20T03:36:39.752Z,9.67
2022-11-20T03:39:07.809Z,9.77
2022-11-20T03:41:38.361Z,8.67
2022-11-20T03:44:07.864Z,5.97
2022-11-20T03:46:35.810Z,4.20
2022-11-20T03:49:03.848Z,5.30
2022-11-20T03:51:33.763Z,6.17
2022-11-20T03:54:02.633Z,2.80
2022-11-20T03:56:31.369Z,3.53
2022-11-20T03:58:59.290Z,7.80
2022-11-20T04:01:28.437Z,10.57
2022-11-20T04:03:57.002Z,12.77
2022-11-20T04:06:25.687Z,15.43
2022-11-20T04:08:56.116Z,5.80
2022-11-20T04:11:25.694Z,5.13
2022-11-20T04:13:54.307Z,5.03
2022-11-20T04:16:22.335Z,9.03
2022-11-20T04:18:53.996Z,4.83
2022-11-20T04:21:21.968Z,8.30
2022-11-20T04:23:49.932Z,2.13
2022-11-20T04:26:19.285Z,7.13
2022-11-20T04:28:47.276Z,3.93
2022-11-20T04:31:16.071Z,13.10
2022-11-20T04:33:44.060Z,5.67
2022-11-20T04:36:13.045Z,4.43
2022-11-20T04:38:41.071Z,4.97
2022-11-20T04:41:10.021Z,8.10
2022-11-20T04:43:39.370Z,3.43
2022-11-20T04:46:07.432Z,4.80
2022-11-20T04:48:36.637Z,5.57
2022-11-20T04:51:05.275Z,6.10
2022-11-20T04:53:33.321Z,5.00
2022-11-20T04:56:04.659Z,5.00
2022-11-20T04:58:32.565Z,5.00
2022-11-20T05:01:05.271Z,8.30
2022-11-20T05:03:33.287Z,11.57
2022-11-20T05:06:02.453Z,6.80
2022-11-20T05:08:30.393Z,19.47
2022-11-20T05:11:02.392Z,5.37
2022-11-20T05:13:30.322Z,5.30
2022-11-20T05:16:03.930Z,5.20
2022-11-20T05:18:32.073Z,7.80
2022-11-20T05:21:00.238Z,6.10
2022-11-20T05:23:28.304Z,3.60
2022-11-20T05:25:59.071Z,4.40
2022-11-20T05:28:27.548Z,5.73
2022-11-20T05:30:55.548Z,3.57
2022-11-20T05:33:24.899Z,8.17
2022-11-20T05:35:52.831Z,5.23
2022-11-20T05:38:20.809Z,6.67
2022-11-20T05:40:48.725Z,3.10
2022-11-20T05:43:16.684Z,13.77
2022-11-20T05:45:44.639Z,10.43
2022-11-20T05:48:12.590Z,3.63
2022-11-20T05:50:41.858Z,9.23
2022-11-20T05:53:09.781Z,6.10
2022-11-20T05:55:37.725Z,6.43
2022-11-20T05:58:05.702Z,29.03
2022-11-20T06:00:33.674Z,4.33
2022-11-20T06:03:01.707Z,10.87
2022-11-20T06:05:29.638Z,6.10
2022-11-20T06:07:58.987Z,7.70
2022-11-20T06:10:26.981Z,12.40
2022-11-20T06:12:54.950Z,9.90
2022-11-20T06:15:22.973Z,8.80
2022-11-20T06:17:54.304Z,8.43
2022-11-20T06:20:22.245Z,7.70
2022-11-20T06:22:50.201Z,14.00
2022-11-20T06:25:19.553Z,10.93
2022-11-20T06:27:47.485Z,11.00
2022-11-20T06:30:15.550Z,10.67
2022-11-20T06:32:43.665Z,12.80
2022-11-20T06:35:12.270Z,10.60
2022-11-20T06:37:40.250Z,11.30
2022-11-20T06:40:09.615Z,13.60
2022-11-20T06:42:38.911Z,11.97
2022-11-20T06:45:07.634Z,13.47
2022-11-20T06:47:35.530Z,15.67
2022-11-20T06:50:03.573Z,17.47
2022-11-20T06:52:31.532Z,18.60
2022-11-20T06:54:59.520Z,20.93
2022-11-20T06:57:27.480Z,20.87
2022-11-20T06:59:57.090Z,19.60
2022-11-20T07:02:25.024Z,20.90
2022-11-20T07:04:52.960Z,21.17
2022-11-20T07:07:20.992Z,24.10
2022-11-20T07:09:48.953Z,29.83
2022-11-20T07:12:17.109Z,27.60
2022-11-20T07:14:45.072Z,29.50
2022-11-20T07:17:14.429Z,64.33
2022-11-20T07:19:43.873Z,28.63
2022-11-20T07:22:11.827Z,26.93
2022-11-20T07:24:44.609Z,24.47
2022-11-20T07:27:13.870Z,28.93
2022-11-20T07:29:41.871Z,30.40
2022-11-20T07:32:09.802Z,36.37
2022-11-20T07:34:39.124Z,25.90
2022-11-20T07:37:10.341Z,31.13
2022-11-20T07:39:38.611Z,31.20
2022-11-20T07:42:06.655Z,28.77
2022-11-20T07:44:34.632Z,35.13
2022-11-20T07:47:02.841Z,36.50
2022-11-20T07:49:30.804Z,25.93
2022-11-20T07:52:04.487Z,26.00
2022-11-20T07:54:33.179Z,27.47
2022-11-20T07:57:01.087Z,32.00
2022-11-20T07:59:29.065Z,35.10
2022-11-20T08:01:57.299Z,32.30
2022-11-20T08:04:25.472Z,37.50
2022-11-20T08:06:54.333Z,33.43
2022-11-20T08:09:23.761Z,31.43
2022-11-20T08:12:09.116Z,32.20
2022-11-20T08:14:37.231Z,24.47
2022-11-20T08:17:05.121Z,36.73
2022-11-20T08:19:33.052Z,32.13
2022-11-20T08:22:00.971Z,21.43
2022-11-20T08:24:30.296Z,31.00
2022-11-20T08:26:59.649Z,25.80
2022-11-20T08:29:28.317Z,29.80
2022-11-20T08:31:56.246Z,32.50
2022-11-20T08:34:24.223Z,27.87
2022-11-20T08:36:52.210Z,36.13
2022-11-20T08:39:20.534Z,38.93
2022-11-20T08:41:50.009Z,42.17
2022-11-20T08:44:17.972Z,40.37
2022-11-20T08:46:46.843Z,31.63
2022-11-20T08:49:15.111Z,31.00
2022-11-20T08:51:43.171Z,40.70
2022-11-20T08:54:11.096Z,32.90
2022-11-20T08:56:39.066Z,38.03
2022-11-20T08:59:43.843Z,35.53
2022-11-20T09:01:56.420Z,29.80
2022-11-20T09:04:24.367Z,34.60
2022-11-20T09:06:52.367Z,48.00
2022-11-20T09:09:20.937Z,36.77
2022-11-20T09:11:50.969Z,43.13
2022-11-20T09:14:20.314Z,48.50
2022-11-20T09:16:48.277Z,43.27
2022-11-20T09:22:04.207Z,39.87
2022-11-20T09:24:32.171Z,37.03
2022-11-20T09:27:00.128Z,45.57
2022-11-20T09:29:29.452Z,32.37
2022-11-20T09:31:57.397Z,37.97
2022-11-20T09:34:25.330Z,27.63
2022-11-20T09:36:53.311Z,31.87
2022-11-20T09:39:21.563Z,31.27
2022-11-20T09:42:05.827Z,35.17
2022-11-20T09:44:52.608Z,29.03
2022-11-20T09:47:25.207Z,23.83
2022-11-20T09:50:00.742Z,34.53
2022-11-20T09:52:33.271Z,44.10
2022-11-20T09:55:01.390Z,44.37
2022-11-20T09:57:38.524Z,33.07
2022-11-20T10:00:12.141Z,31.77
2022-11-20T10:02:43.119Z,37.27
2022-11-20T10:05:13.455Z,25.83
2022-11-20T10:07:43.737Z,28.77
2022-11-20T10:10:16.695Z,41.67
2022-11-20T10:12:53.804Z,40.00
2022-11-20T10:15:30.747Z,41.80
2022-11-20T10:18:08.300Z,34.00
2022-11-20T10:20:41.529Z,29.83
2022-11-20T10:23:25.831Z,36.37
2022-11-20T10:25:56.828Z,36.43
2022-11-20T10:28:30.157Z,35.93
2022-11-20T10:31:02.132Z,30.20
2022-11-20T10:33:49.952Z,34.00
2022-11-20T10:36:22.914Z,39.40
2022-11-20T10:38:52.379Z,33.20
2022-11-20T10:41:26.403Z,30.57
2022-11-20T10:43:56.189Z,48.13
2022-11-20T10:46:25.554Z,45.73
2022-11-20T10:48:53.513Z,58.47
2022-11-20T10:51:29.980Z,65.83
2022-11-20T10:54:00.996Z,66.53
2022-11-20T10:56:33.374Z,51.93
2022-11-20T10:59:07.253Z,44.50
2022-11-20T11:01:42.216Z,40.93
2022-11-20T11:04:17.978Z,31.10
2022-11-20T11:06:47.725Z,44.00
2022-11-20T11:09:17.977Z,37.97
2022-11-20T11:11:45.952Z,35.90
2022-11-20T11:14:14.678Z,31.67
2022-11-20T11:16:52.948Z,32.13
2022-11-20T11:19:20.999Z,39.00
2022-11-20T11:21:55.007Z,34.63
2022-11-20T11:24:41.567Z,31.10
2022-11-20T11:27:17.342Z,30.77
2022-11-20T11:29:45.669Z,28.97
2022-11-20T11:32:16.030Z,27.07
2022-11-20T11:34:43.949Z,28.60
2022-11-20T11:37:15.042Z,31.27
2022-11-20T11:39:43.268Z,30.50
2022-11-20T11:42:12.944Z,26.17
2022-11-20T11:44:58.360Z,39.43
2022-11-20T11:47:28.454Z,33.40
2022-11-20T11:50:03.843Z,27.00
2022-11-20T11:52:31.829Z,35.80
2022-11-20T11:55:00.714Z,30.37
2022-11-20T11:57:31.119Z,29.30
2022-11-20T12:00:03.155Z,26.90
2022-11-20T12:02:38.557Z,26.80
2022-11-20T12:05:12.878Z,22.40
2022-11-20T12:07:47.139Z,26.70
2022-11-20T12:10:19.169Z,21.80
2022-11-20T12:12:48.868Z,42.70
2022-11-20T12:15:27.307Z,31.07
2022-11-20T12:17:56.716Z,25.10
2022-11-20T12:20:25.104Z,25.70
2022-11-20T12:22:55.905Z,25.97
2022-11-20T12:25:25.010Z,29.33
2022-11-20T12:28:16.819Z,25.70
2022-11-20T12:30:51.397Z,17.50
2022-11-20T12:33:31.886Z,24.40
2022-11-20T12:36:10.120Z,21.67
2022-11-20T12:39:13.219Z,22.17
2022-11-20T12:42:28.485Z,33.80
2022-11-20T12:45:23.785Z,35.23
2022-11-20T12:48:02.105Z,36.70
2022-11-20T12:50:53.429Z,30.60
2022-11-20T12:53:28.200Z,29.53
2022-11-20T12:55:59.050Z,26.13
2022-11-20T12:58:30.142Z,31.20
2022-11-20T13:01:00.308Z,29.90
2022-11-20T13:03:44.778Z,27.63
2022-11-20T13:06:18.769Z,28.47
2022-11-20T13:08:50.305Z,30.40
2022-11-20T13:11:21.160Z,38.13
2022-11-20T13:14:01.618Z,27.83
2022-11-20T13:16:33.181Z,24.40
2022-11-20T13:19:03.922Z,26.37
2022-11-20T13:21:39.602Z,21.63
2022-11-20T13:24:07.953Z,37.93
2022-11-20T13:26:35.917Z,30.60
2022-11-20T13:29:06.959Z,34.10
2022-11-20T13:31:36.163Z,42.67
2022-11-20T13:34:05.335Z,34.73
2022-11-20T13:36:33.613Z,33.13
2022-11-20T13:39:02.987Z,28.97
2022-11-20T13:41:32.573Z,29.17
2022-11-20T13:44:06.458Z,26.47
2022-11-20T13:46:40.650Z,34.23
2022-11-20T13:49:10.281Z,27.23
2022-11-20T13:51:42.552Z,27.33
2022-11-20T13:54:32.949Z,29.93
2022-11-20T13:57:06.215Z,29.10
2022-11-20T13:59:48.626Z,27.03
2022-11-20T14:02:18.086Z,31.00
2022-11-20T14:04:48.158Z,26.30
2022-11-20T14:07:16.280Z,34.67
2022-11-20T14:09:53.837Z,34.40
2022-11-20T14:12:22.610Z,34.87
2022-11-20T14:14:51.090Z,37.30
2022-11-20T14:17:20.736Z,47.60
2022-11-20T14:19:49.358Z,39.27
2022-11-20T14:22:22.219Z,30.70
2022-11-20T14:24:50.436Z,25.33
2022-11-20T14:27:20.724Z,22.77
2022-11-20T14:29:49.336Z,30.23
2022-11-20T14:32:18.507Z,38.53
2022-11-20T14:34:47.771Z,42.80
2022-11-20T14:37:19.770Z,45.70
2022-11-20T14:39:51.312Z,47.47
2022-11-20T14:42:21.432Z,34.97
2022-11-20T14:44:50.009Z,35.30
2022-11-20T14:47:20.872Z,31.73
2022-11-20T14:49:48.794Z,32.10
2022-11-20T14:52:18.206Z,47.20
2022-11-20T14:54:46.984Z,42.70
2022-11-20T14:57:27.573Z,37.97
2022-11-20T15:00:07.205Z,43.27
2022-11-20T15:02:35.172Z,28.30
2022-11-20T15:05:04.292Z,162.90
2022-11-20T15:07:33.535Z,519.17
2022-11-20T15:10:02.790Z,175.27
2022-11-20T15:12:32.406Z,38.43
2022-11-20T15:15:01.033Z,27.30
2022-11-20T15:17:28.967Z,34.93
2022-11-20T15:19:56.970Z,28.47
2022-11-20T15:22:24.952Z,19.87
2022-11-20T15:24:52.888Z,25.47
2022-11-20T15:27:20.856Z,18.30
2022-11-20T15:29:50.545Z,22.00
2022-11-20T15:32:18.466Z,21.57
2022-11-20T15:34:46.447Z,16.17
2022-11-20T15:37:14.386Z,13.40
2022-11-20T15:39:42.338Z,15.20
2022-11-20T15:42:10.272Z,15.37
2022-11-20T15:44:38.178Z,19.67
2022-11-20T15:47:07.490Z,23.13
2022-11-20T15:49:35.513Z,84.47
2022-11-20T15:52:03.492Z,15.67
2022-11-20T15:54:31.420Z,14.50
2022-11-20T15:57:00.246Z,27.20
2022-11-20T15:59:28.189Z,20.53
2022-11-20T16:01:56.235Z,18.03
2022-11-20T16:04:26.145Z,58.10
2022-11-20T16:06:54.255Z,23.03
2022-11-20T16:09:22.194Z,15.80
2022-11-20T16:11:50.156Z,18.90
2022-11-20T16:14:35.483Z,18.63
2022-11-20T16:17:03.686Z,16.57
2022-11-20T16:19:32.971Z,17.67
2022-11-20T16:22:03.142Z,77.27
2022-11-20T16:24:31.309Z,19.93
2022-11-20T16:26:59.359Z,30.37
2022-11-20T16:29:27.264Z,18.53
2022-11-20T16:31:55.218Z,14.57
2022-11-20T16:34:23.219Z,21.13
2022-11-20T16:36:52.564Z,18.80
2022-11-20T16:39:23.863Z,16.90
2022-11-20T16:41:51.981Z,9.10
2022-11-20T16:44:19.927Z,11.10
2022-11-20T16:46:47.881Z,39.47
2022-11-20T16:49:15.809Z,24.60
2022-11-20T16:51:43.950Z,15.03
2022-11-20T16:54:17.950Z,17.10
2022-11-20T16:56:48.657Z,17.20
2022-11-20T16:59:16.676Z,14.67
2022-11-20T17:01:44.643Z,11.67
2022-11-20T17:04:12.663Z,11.70
2022-11-20T17:06:44.252Z,15.40
2022-11-20T17:09:13.950Z,18.27
2022-11-20T17:11:41.940Z,20.87
2022-11-20T17:14:10.016Z,26.83
2022-11-20T17:16:38.095Z,33.00
2022-11-20T17:19:06.342Z,37.63
2022-11-20T17:21:35.949Z,31.40
2022-11-20T17:24:04.266Z,20.43
2022-11-20T17:26:33.696Z,18.83
2022-11-20T17:29:04.705Z,20.07
2022-11-20T17:31:33.392Z,21.60
2022-11-20T17:34:01.725Z,18.03
2022-11-20T17:36:29.947Z,18.70
2022-11-20T17:38:57.910Z,20.87
2022-11-20T17:41:26.975Z,20.00
2022-11-20T17:43:56.556Z,17.20
2022-11-20T17:46:25.945Z,15.53
2022-11-20T17:48:53.903Z,19.13
2022-11-20T17:51:22.647Z,23.37
2022-11-20T17:53:51.746Z,22.53
2022-11-20T17:56:37.308Z,23.57
2022-11-20T17:59:07.231Z,29.67
2022-11-20T18:01:35.231Z,23.53
2022-11-20T18:04:03.472Z,27.53
2022-11-20T18:06:31.586Z,28.50
2022-11-20T18:08:59.617Z,20.70
2022-11-20T18:11:29.158Z,29.43
2022-11-20T18:14:16.513Z,30.10
2022-11-20T18:16:47.282Z,28.07
2022-11-20T18:19:16.223Z,18.33
2022-11-20T18:21:44.196Z,27.93
2022-11-20T18:24:12.292Z,18.60
2022-11-20T18:26:44.231Z,38.03
2022-11-20T18:29:12.867Z,85.67
2022-11-20T18:31:40.799Z,68.00
2022-11-20T18:34:12.985Z,35.00
2022-11-20T18:36:40.962Z,35.20
2022-11-20T18:39:08.958Z,44.23
2022-11-20T18:41:54.024Z,29.37
2022-11-20T18:44:40.154Z,28.97
2022-11-20T18:47:14.071Z,24.07
2022-11-20T18:49:46.266Z,30.47
2022-11-20T18:52:14.271Z,26.00
2022-11-20T18:54:42.289Z,24.30
2022-11-20T18:57:14.496Z,24.40
2022-11-20T18:59:43.660Z,22.03
2022-11-20T19:02:12.377Z,23.93
2022-11-20T19:04:40.355Z,24.70
2022-11-20T19:07:12.044Z,22.07
2022-11-20T19:09:40.306Z,12.07
2022-11-20T19:12:08.929Z,25.20
2022-11-20T19:14:36.975Z,16.17
2022-11-20T19:17:05.056Z,11.80
2022-11-20T19:19:33.100Z,16.90
2022-11-20T19:22:01.046Z,18.30
2022-11-20T19:24:30.438Z,16.73
2022-11-20T19:26:58.452Z,19.93
2022-11-20T19:29:27.071Z,15.37
2022-11-20T19:31:55.248Z,16.83
2022-11-20T19:34:23.414Z,17.30
2022-11-20T19:36:51.371Z,17.57
2022-11-20T19:39:19.312Z,16.37
2022-11-20T19:41:48.576Z,18.33
2022-11-20T19:44:17.075Z,22.90
2022-11-20T19:46:45.194Z,14.73
2022-11-20T19:49:14.196Z,15.47
2022-11-20T19:51:46.517Z,17.63
2022-11-20T19:54:14.470Z,21.33
2022-11-20T19:56:42.415Z,17.20
2022-11-20T19:59:11.689Z,15.53
2022-11-20T20:01:39.707Z,14.07
2022-11-20T20:04:07.772Z,21.47
2022-11-20T20:06:36.651Z,19.33
2022-11-20T20:09:05.869Z,18.83
2022-11-20T20:11:34.132Z,31.47
2022-11-20T20:14:02.518Z,40.30
2022-11-20T20:16:31.804Z,27.77
2022-11-20T20:19:01.319Z,25.90
2022-11-20T20:21:30.576Z,20.20
2022-11-20T20:23:58.949Z,23.27
2022-11-20T20:26:28.003Z,24.67
2022-11-20T20:28:55.968Z,30.13
2022-11-20T20:31:24.581Z,66.17
2022-11-20T20:33:53.911Z,29.10
2022-11-20T20:36:22.762Z,30.57
2022-11-20T20:38:53.123Z,25.43
2022-11-20T20:41:21.182Z,38.70
2022-11-20T20:44:06.651Z,29.20
2022-11-20T20:46:34.634Z,100.30
2022-11-20T20:49:03.960Z,293.60
2022-11-20T20:51:31.916Z,168.87
2022-11-20T20:53:59.872Z,64.60
2022-11-20T20:56:27.891Z,75.50
2022-11-20T20:58:55.849Z,106.13
2022-11-20T21:01:28.534Z,105.07
2022-11-20T21:03:56.838Z,41.33
2022-11-20T21:06:26.267Z,34.90
2022-11-20T21:08:55.960Z,28.27
2022-11-20T21:11:23.912Z,29.73
2022-11-20T21:13:52.234Z,26.60
2022-11-20T21:16:20.614Z,22.47
2022-11-20T21:18:48.591Z,20.90
2022-11-20T21:21:34.270Z,12.27
2022-11-20T21:24:03.569Z,9.23
2022-11-20T21:26:31.488Z,9.43
2022-11-20T21:28:59.434Z,7.37
2022-11-20T21:31:28.498Z,5.17
2022-11-20T21:33:56.859Z,5.87
2022-11-20T21:36:25.882Z,11.17
2022-11-20T21:38:54.578Z,15.73
2022-11-20T21:41:24.034Z,18.40
2022-11-20T21:44:23.686Z,17.03
2022-11-20T21:46:40.632Z,14.50
2022-11-20T21:49:08.565Z,16.23
2022-11-20T21:51:36.495Z,15.53
2022-11-20T21:54:04.564Z,12.37
2022-11-20T21:56:33.893Z,13.90
2022-11-20T21:59:01.789Z,15.47
2022-11-20T22:01:30.732Z,11.17
2022-11-20T22:03:59.415Z,9.97
2022-11-20T22:06:28.005Z,9.60
2022-11-20T22:08:55.943Z,9.10
2022-11-20T22:11:23.926Z,9.00
2022-11-20T22:14:10.787Z,6.87
2022-11-20T22:16:38.822Z,14.73
2022-11-20T22:19:06.887Z,18.03
2022-11-20T22:21:35.112Z,16.00
2022-11-20T22:24:03.146Z,13.43
2022-11-20T22:26:33.958Z,13.70
2022-11-20T22:29:06.709Z,10.87
2022-11-20T22:31:34.660Z,12.77
2022-11-20T22:34:03.081Z,10.63
2022-11-20T22:36:31.737Z,9.67
2022-11-20T22:38:59.741Z,7.50
2022-11-20T22:41:28.280Z,10.73
2022-11-20T22:43:56.813Z,7.53
2022-11-20T22:46:26.425Z,4.20
2022-11-20T22:48:55.021Z,3.33
2022-11-20T22:51:24.368Z,3.60
2022-11-20T22:53:52.457Z,4.53
2022-11-20T22:56:20.444Z,5.03
2022-11-20T22:58:48.903Z,2.30
2022-11-20T23:01:17.655Z,4.50
2022-11-20T23:03:48.317Z,3.03
2022-11-20T23:06:16.876Z,2.83
2022-11-20T23:08:44.843Z,4.67
2022-11-20T23:11:13.975Z,5.37
2022-11-20T23:13:42.038Z,6.00
2022-11-20T23:16:10.898Z,6.67
2022-11-20T23:18:38.871Z,6.50
2022-11-20T23:21:08.310Z,7.03
2022-11-20T23:23:36.261Z,7.37
2022-11-20T23:26:04.287Z,3.77
2022-11-20T23:28:32.257Z,9.97
2022-11-20T23:31:00.871Z,4.87
2022-11-20T23:33:28.779Z,6.07
2022-11-20T23:35:56.729Z,4.93
2022-11-20T23:38:26.041Z,2.30
2022-11-20T23:40:53.981Z,3.20
2022-11-20T23:43:22.437Z,4.83
2022-11-20T23:45:51.112Z,8.73
2022-11-20T23:48:19.144Z,10.03
2022-11-20T23:50:47.148Z,5.23
2022-11-20T23:53:15.336Z,2.83
2022-11-20T23:55:47.032Z,8.90
2022-11-20T23:58:15.015Z,3.27
